• Join FlightAware (Why Join?)
  • Login
  • US Flag 
07:54AM EDT


 

Airport Tracker/Info


-or-


 

Live Flight TrackerFlight Track Log ✈ N515JM ✈ 17-Sep-2013 ✈ KTEB - KHPN

Flight Track Log - Related Links

Times and Time Zones

All times are in EDT time to prevent confusion due to time zone crossing. See the N515JM flight status page for this flight to view local times or setup timezone preferences in your user account.

Time Position Orientation Groundspeed Altitude Reporting Facility
EDT Latitude Longitude Course Direction KTS MPH feet Rate Location/Type
06:20PM 40.9167 -74.0500 360° North 228 262 2,900  Level New York TRACON
06:21PM 40.9500 -74.1167 304° West 235 270 3,000  Climbing New York TRACON
06:22PM 41.0167 -74.1333 349° North 229 264 3,000  Level New York TRACON
06:23PM 41.0833 -74.1333 360° North 223 257 3,000  Level New York TRACON
06:24PM 41.1500 -74.1333 360° North 221 254 3,000  Level New York TRACON
06:25PM 41.1667 -74.0500 75° East 236 272 3,000  Level New York TRACON
06:26PM 41.1833 -73.9667 75° East 245 282 3,000  Level New York TRACON
06:27PM 41.2000 -73.8833 75° East 251 289 3,000  Level New York TRACON
06:28PM 41.2167 -73.8000 75° East 251 289 3,000  Level New York TRACON
06:29PM 41.2500 -73.7000 66° East 249 287 3,000  Level New York TRACON
06:30PM 41.2667 -73.6167 75° East 254 292 3,000  Level New York TRACON
06:31PM 41.2333 -73.5333 118° Southeast 241 277 3,000  Level New York TRACON
06:32PM 41.1833 -73.5000 153° Southeast 215 247 3,000  Level New York TRACON
06:33PM 41.1167 -73.5000 180° South 223 257 3,000  Level New York TRACON
06:34PM 41.0667 -73.4833 166° South 230 265 3,000  Level New York TRACON
06:35PM 41.0000 -73.5167 201° Southwest 231 266 3,000 -180 Level New York TRACON
06:36PM 40.9500 -73.5500 207° Southwest 234 269 2,700 -540 Descending New York TRACON
06:37PM 40.9500 -73.6333 270° West 232 267 2,000 -360 Descending New York TRACON
06:38PM 41.0000 -73.6500 346° North 152 175 2,000 -360 Level New York TRACON
06:39PM 41.0333 -73.6833 323° Northwest 133 153 1,300 -720 Descending New York TRACON
06:41PM 41.0667 -73.7000 296° West  Level FlightAware Approximate
06:48PM 41.0669 -73.7076 296° West  Level Estimated
06:49PM 41.0667 -73.7000 296° West  Level FlightAware Approximate
06:50PM 41.0669 -73.7076 296° West  Level Estimated